createdAt,value
2018-03-03T00:01:42.600Z,-2.00
2018-03-03T00:04:12.260Z,-2.00
2018-03-03T00:06:41.095Z,-2.00
2018-03-03T00:09:09.934Z,-2.00
2018-03-03T00:11:38.789Z,-2.00
2018-03-03T00:14:08.420Z,-2.00
2018-03-03T00:16:37.287Z,-2.00
2018-03-03T00:19:06.125Z,-2.00
2018-03-03T00:21:46.674Z,-2.00
2018-03-03T00:24:15.527Z,-2.10
2018-03-03T00:26:45.092Z,-2.10
2018-03-03T00:29:13.974Z,-2.10
2018-03-03T00:31:42.835Z,-2.10
2018-03-03T00:34:11.672Z,-2.10
2018-03-03T00:36:40.574Z,-2.10
2018-03-03T00:39:09.412Z,-2.10
2018-03-03T00:41:38.281Z,-2.20
2018-03-03T00:44:07.066Z,-2.20
2018-03-03T00:46:35.911Z,-2.20
2018-03-03T00:49:04.767Z,-2.20
2018-03-03T00:51:33.610Z,-2.20
2018-03-03T00:54:03.260Z,-2.30
2018-03-03T00:56:32.101Z,-2.30
2018-03-03T00:59:00.981Z,-2.30
2018-03-03T01:01:29.873Z,-2.30
2018-03-03T01:03:58.701Z,-2.30
2018-03-03T01:06:27.267Z,-2.30
2018-03-03T01:08:56.836Z,-2.30
2018-03-03T01:11:25.667Z,-2.30
2018-03-03T01:13:54.524Z,-2.30
2018-03-03T01:16:23.375Z,-2.30
2018-03-03T01:18:52.224Z,-2.30
2018-03-03T01:21:21.026Z,-2.30
2018-03-03T01:23:50.637Z,-2.40
2018-03-03T01:26:22.301Z,-2.40
2018-03-03T01:28:51.127Z,-2.40
2018-03-03T01:31:19.966Z,-2.40
2018-03-03T01:33:48.764Z,-2.40
2018-03-03T01:36:17.618Z,-2.40
2018-03-03T01:38:46.463Z,-2.40
2018-03-03T01:41:15.270Z,-2.40
2018-03-03T01:43:44.122Z,-2.40
2018-03-03T01:46:12.958Z,-2.50
2018-03-03T01:48:41.791Z,-2.50
2018-03-03T01:51:22.487Z,-2.50
2018-03-03T01:53:51.311Z,-2.50
2018-03-03T01:56:21.037Z,-2.50
2018-03-03T01:58:49.866Z,-2.50
2018-03-03T02:01:18.689Z,-2.50
2018-03-03T02:03:47.506Z,-2.50
2018-03-03T02:06:16.334Z,-2.50
2018-03-03T02:08:45.171Z,-2.50
2018-03-03T02:11:14.010Z,-2.50
2018-03-03T02:13:42.862Z,-2.50
2018-03-03T02:16:11.940Z,-2.50
2018-03-03T02:18:40.797Z,-2.50
2018-03-03T02:21:09.671Z,-2.50
2018-03-03T02:23:38.491Z,-2.50
2018-03-03T02:26:07.364Z,-2.60
2018-03-03T02:28:36.209Z,-2.60
2018-03-03T02:31:05.821Z,-2.60
2018-03-03T02:33:34.675Z,-2.70
2018-03-03T02:36:03.463Z,-2.60
2018-03-03T02:38:32.295Z,-2.70
2018-03-03T02:41:01.162Z,-2.70
2018-03-03T02:43:30.018Z,-2.70
2018-03-03T02:45:58.858Z,-2.70
2018-03-03T02:48:28.451Z,-2.70
2018-03-03T02:50:57.295Z,-2.70
2018-03-03T02:53:26.085Z,-2.70
2018-03-03T02:55:54.910Z,-2.70
2018-03-03T02:58:23.768Z,-2.70
2018-03-03T03:00:53.377Z,-2.70
2018-03-03T03:03:22.214Z,-2.70
2018-03-03T03:05:51.790Z,-2.70
2018-03-03T03:08:20.661Z,-2.70
2018-03-03T03:10:49.535Z,-2.70
2018-03-03T03:13:18.339Z,-2.70
2018-03-03T03:15:47.244Z,-2.70
2018-03-03T03:18:16.038Z,-2.70
2018-03-03T03:20:44.902Z,-2.70
2018-03-03T03:23:14.802Z,-2.70
2018-03-03T03:25:43.654Z,-2.80
2018-03-03T03:28:12.486Z,-2.70
2018-03-03T03:30:41.279Z,-2.80
2018-03-03T03:33:10.126Z,-2.80
2018-03-03T03:35:39.766Z,-2.80
2018-03-03T03:38:08.636Z,-2.90
2018-03-03T03:40:37.474Z,-2.80
2018-03-03T03:43:06.266Z,-2.80
2018-03-03T03:45:35.110Z,-2.80
2018-03-03T03:48:04.725Z,-2.90
2018-03-03T03:50:33.517Z,-2.90
2018-03-03T03:53:02.369Z,-2.90
2018-03-03T03:55:31.193Z,-2.90
2018-03-03T03:58:00.022Z,-2.90
2018-03-03T04:00:28.883Z,-3.00
2018-03-03T04:02:57.702Z,-3.10
2018-03-03T04:05:26.537Z,-3.10
2018-03-03T04:07:55.370Z,-3.20
2018-03-03T04:10:24.170Z,-3.20
2018-03-03T04:12:53.047Z,-3.20
2018-03-03T04:15:25.501Z,-3.20
2018-03-03T04:17:54.415Z,-3.10
2018-03-03T04:20:23.222Z,-3.10
2018-03-03T04:22:52.067Z,-3.10
2018-03-03T04:25:20.748Z,-3.20
2018-03-03T04:27:49.472Z,-3.10
2018-03-03T04:30:18.338Z,-3.10
2018-03-03T04:32:47.121Z,-3.10
2018-03-03T04:35:15.818Z,-3.10
2018-03-03T04:37:44.470Z,-3.10
2018-03-03T04:40:13.302Z,-3.10
2018-03-03T04:42:42.170Z,-3.10
2018-03-03T04:45:10.829Z,-3.10
2018-03-03T04:47:40.373Z,-3.20
2018-03-03T04:50:09.061Z,-3.20
2018-03-03T04:52:37.761Z,-3.20
2018-03-03T04:55:06.471Z,-3.20
2018-03-03T04:57:35.893Z,-3.20
2018-03-03T05:00:10.502Z,-3.20
2018-03-03T05:02:53.855Z,-3.30
2018-03-03T05:05:24.430Z,-3.30
2018-03-03T05:07:55.114Z,-3.20
2018-03-03T05:10:26.282Z,-3.20
2018-03-03T05:13:00.562Z,-3.20
2018-03-03T05:15:34.874Z,-3.20
2018-03-03T05:21:25.046Z,-3.30
2018-03-03T05:23:59.343Z,-3.30
2018-03-03T05:26:45.707Z,-3.30
2018-03-03T05:29:20.620Z,-3.30
2018-03-03T05:35:16.094Z,-3.30
2018-03-03T05:37:51.119Z,-3.30
2018-03-03T05:40:32.217Z,-3.30
2018-03-03T05:43:06.443Z,-3.30
2018-03-03T05:45:40.689Z,-3.30
2018-03-03T05:48:14.890Z,-3.30
2018-03-03T05:50:49.202Z,-3.30
2018-03-03T05:56:41.588Z,-3.30
2018-03-03T05:59:14.085Z,-3.30
2018-03-03T06:01:43.810Z,-3.30
2018-03-03T06:04:15.418Z,-3.30
2018-03-03T06:06:49.596Z,-3.30
2018-03-03T06:09:18.200Z,-3.30
2018-03-03T06:11:47.635Z,-3.20
2018-03-03T06:14:16.271Z,-3.30
2018-03-03T06:16:53.657Z,-3.20
2018-03-03T06:19:22.448Z,-3.20
2018-03-03T06:21:51.225Z,-3.20
2018-03-03T06:24:20.015Z,-3.20
2018-03-03T06:26:48.771Z,-3.20
2018-03-03T06:29:17.575Z,-3.20
2018-03-03T06:31:46.407Z,-3.10
2018-03-03T06:34:15.964Z,-3.10
2018-03-03T06:36:45.374Z,-3.10
2018-03-03T06:39:14.893Z,-3.00
2018-03-03T06:41:43.676Z,-3.00
2018-03-03T06:44:12.491Z,-3.00
2018-03-03T06:46:41.248Z,-3.00
2018-03-03T06:49:10.038Z,-3.00
2018-03-03T06:51:38.865Z,-2.90
2018-03-03T06:54:07.676Z,-2.90
2018-03-03T06:56:36.535Z,-2.80
2018-03-03T06:59:05.347Z,-2.80
2018-03-03T07:01:35.114Z,-2.70
2018-03-03T07:04:03.954Z,-2.70
2018-03-03T07:06:32.830Z,-2.70
2018-03-03T07:09:01.721Z,-2.70
2018-03-03T07:11:30.615Z,-2.60
2018-03-03T07:13:59.320Z,-2.60
2018-03-03T07:16:28.016Z,-2.50
2018-03-03T07:18:56.900Z,-2.40
2018-03-03T07:21:25.751Z,-2.40
2018-03-03T07:23:54.588Z,-2.40
2018-03-03T07:26:23.477Z,-2.30
2018-03-03T07:28:52.289Z,-2.20
2018-03-03T07:31:21.924Z,-2.10
2018-03-03T07:33:50.797Z,-2.10
2018-03-03T07:36:20.462Z,-2.00
2018-03-03T07:38:49.328Z,-2.00
2018-03-03T07:41:18.146Z,-1.90
2018-03-03T07:43:47.041Z,-1.80
2018-03-03T07:46:15.900Z,-1.80
2018-03-03T07:48:44.763Z,-1.70
2018-03-03T07:51:15.482Z,-1.60
2018-03-03T07:53:44.330Z,-1.60
2018-03-03T07:56:13.191Z,-1.50
2018-03-03T07:58:49.409Z,-1.60
2018-03-03T08:01:18.271Z,-1.60
2018-03-03T08:03:47.133Z,-1.60
2018-03-03T08:06:16.765Z,-1.60
2018-03-03T08:08:45.679Z,-1.60
2018-03-03T08:11:14.503Z,-1.60
2018-03-03T08:13:43.381Z,-1.70
2018-03-03T08:16:12.242Z,-1.60
2018-03-03T08:18:41.077Z,-1.60
2018-03-03T08:21:09.925Z,-1.60
2018-03-03T08:23:38.777Z,-1.50
2018-03-03T08:26:07.632Z,-1.50
2018-03-03T08:28:36.517Z,-1.40
2018-03-03T08:31:05.404Z,-1.40
2018-03-03T08:33:34.280Z,-1.30
2018-03-03T08:36:03.925Z,-1.30
2018-03-03T08:38:32.784Z,-1.30
2018-03-03T08:41:01.664Z,-1.10
2018-03-03T08:43:31.286Z,-1.00
2018-03-03T08:46:00.946Z,-1.00
2018-03-03T08:48:29.818Z,-1.00
2018-03-03T08:50:58.707Z,-1.00
2018-03-03T08:53:27.621Z,-0.90
2018-03-03T08:55:56.317Z,-0.80
2018-03-03T08:58:25.030Z,-0.90
2018-03-03T09:00:53.568Z,-0.70
2018-03-03T09:03:23.164Z,-0.60
2018-03-03T09:05:52.196Z,-0.50
2018-03-03T09:08:21.113Z,-0.30
2018-03-03T09:10:49.974Z,-0.20
2018-03-03T09:13:18.563Z,-0.10
2018-03-03T09:15:48.438Z,0.00
2018-03-03T09:18:17.177Z,0.10
2018-03-03T09:20:45.724Z,0.10
2018-03-03T09:23:14.612Z,0.20
2018-03-03T09:25:43.459Z,0.30
2018-03-03T09:28:12.827Z,0.40
2018-03-03T09:30:41.464Z,0.40
2018-03-03T09:33:10.051Z,0.50
2018-03-03T09:35:38.627Z,0.50
2018-03-03T09:38:07.196Z,0.50
2018-03-03T09:40:36.540Z,0.40
2018-03-03T09:43:05.135Z,0.40
2018-03-03T09:45:33.779Z,0.40
2018-03-03T09:48:02.331Z,0.50
2018-03-03T09:50:30.940Z,0.50
2018-03-03T09:52:59.632Z,0.60
2018-03-03T09:55:28.200Z,0.70
2018-03-03T09:57:56.785Z,0.80
2018-03-03T10:00:25.201Z,0.80
2018-03-03T10:02:53.615Z,0.90
2018-03-03T10:05:22.207Z,0.90
2018-03-03T10:07:50.806Z,0.90
2018-03-03T10:10:19.455Z,1.00
2018-03-03T10:12:48.034Z,1.10
2018-03-03T10:15:16.936Z,1.00
2018-03-03T10:17:45.564Z,1.10
2018-03-03T10:20:14.135Z,1.10
2018-03-03T10:22:42.680Z,1.00
2018-03-03T10:25:11.236Z,1.00
2018-03-03T10:27:39.894Z,1.00
2018-03-03T10:30:08.504Z,1.10
2018-03-03T10:32:37.175Z,1.10
2018-03-03T10:35:06.274Z,1.20
2018-03-03T10:37:34.889Z,1.30
2018-03-03T10:40:03.565Z,1.30
2018-03-03T10:42:32.216Z,1.30
2018-03-03T10:45:06.179Z,1.40
2018-03-03T10:47:36.793Z,1.30
2018-03-03T10:50:05.578Z,1.40
2018-03-03T10:52:34.255Z,1.50
2018-03-03T10:55:06.456Z,1.50
2018-03-03T10:57:36.596Z,1.70
2018-03-03T11:00:06.096Z,1.70
2018-03-03T11:02:35.764Z,1.90
2018-03-03T11:05:06.230Z,1.70
2018-03-03T11:07:35.055Z,1.70
2018-03-03T11:10:10.913Z,1.90
2018-03-03T11:12:45.181Z,1.90
2018-03-03T11:15:19.786Z,1.80
2018-03-03T11:17:48.351Z,1.90
2018-03-03T11:20:20.468Z,1.90
2018-03-03T11:22:49.063Z,1.80
2018-03-03T11:25:17.687Z,1.90
2018-03-03T11:27:46.355Z,2.00
2018-03-03T11:30:18.568Z,2.10
2018-03-03T11:32:47.286Z,1.90
2018-03-03T11:35:15.866Z,2.30
2018-03-03T11:37:44.444Z,2.30
2018-03-03T11:40:13.061Z,2.20
2018-03-03T11:42:41.905Z,2.30
2018-03-03T11:45:11.578Z,2.00
2018-03-03T11:47:42.292Z,2.10
2018-03-03T11:50:11.000Z,2.10
2018-03-03T11:52:39.611Z,2.20
2018-03-03T11:55:08.185Z,2.10
2018-03-03T11:57:37.629Z,2.20
2018-03-03T12:00:06.314Z,2.10
2018-03-03T12:02:34.873Z,2.20
2018-03-03T12:05:04.344Z,2.40
2018-03-03T12:07:33.062Z,2.40
2018-03-03T12:10:04.753Z,2.20
2018-03-03T12:12:35.239Z,2.20
2018-03-03T12:15:03.849Z,2.10
2018-03-03T12:17:32.521Z,2.10
2018-03-03T12:20:04.552Z,2.00
2018-03-03T12:22:34.277Z,2.10
2018-03-03T12:25:02.789Z,2.10
2018-03-03T12:27:31.412Z,2.10
2018-03-03T12:29:59.966Z,2.10
2018-03-03T12:32:29.337Z,2.10
2018-03-03T12:34:57.929Z,2.10
2018-03-03T12:37:26.521Z,2.10
2018-03-03T12:39:55.089Z,2.10
2018-03-03T12:42:23.774Z,2.10
2018-03-03T12:44:52.452Z,1.90
2018-03-03T12:47:21.033Z,1.80
2018-03-03T12:49:49.549Z,1.70
2018-03-03T12:52:18.148Z,1.90
2018-03-03T12:54:51.274Z,1.90
2018-03-03T12:57:19.828Z,1.80
2018-03-03T12:59:48.407Z,1.90
2018-03-03T13:02:17.137Z,2.00
2018-03-03T13:04:45.762Z,1.90
2018-03-03T13:07:14.332Z,1.70
2018-03-03T13:09:42.936Z,1.80
2018-03-03T13:12:11.739Z,1.80
2018-03-03T13:14:41.129Z,1.90
2018-03-03T13:17:11.728Z,1.80
2018-03-03T13:19:40.529Z,2.00
2018-03-03T13:22:13.792Z,1.90
2018-03-03T13:24:44.683Z,1.80
2018-03-03T13:27:13.747Z,1.60
2018-03-03T13:29:42.719Z,1.60
2018-03-03T13:32:21.123Z,1.50
2018-03-03T13:34:50.125Z,1.50
2018-03-03T13:37:19.828Z,1.50
2018-03-03T13:39:49.246Z,1.60
2018-03-03T13:42:29.937Z,1.70
2018-03-03T13:44:58.566Z,1.70
2018-03-03T13:47:27.145Z,2.10
2018-03-03T13:49:56.515Z,2.40
2018-03-03T13:52:25.158Z,2.40
2018-03-03T13:54:53.838Z,2.60
2018-03-03T13:57:23.526Z,2.60
2018-03-03T13:59:52.079Z,2.70
2018-03-03T14:02:21.368Z,2.80
2018-03-03T14:04:49.925Z,2.80
2018-03-03T14:07:18.657Z,2.80
2018-03-03T14:09:48.039Z,4.20
2018-03-03T14:12:16.643Z,4.20
2018-03-03T14:14:49.594Z,4.30
2018-03-03T14:17:18.254Z,4.50
2018-03-03T14:19:46.853Z,4.70
2018-03-03T14:22:15.482Z,4.40
2018-03-03T14:24:44.817Z,4.20
2018-03-03T14:27:13.396Z,4.20
2018-03-03T14:29:42.793Z,3.90
2018-03-03T14:32:12.228Z,3.70
2018-03-03T14:34:40.802Z,3.60
2018-03-03T14:37:09.378Z,3.20
2018-03-03T14:39:37.976Z,3.10
2018-03-03T14:42:06.632Z,3.20
2018-03-03T14:44:39.132Z,3.50
2018-03-03T14:47:07.724Z,3.50
2018-03-03T14:49:36.428Z,3.50
2018-03-03T14:52:05.000Z,3.60
2018-03-03T14:54:33.698Z,4.00
2018-03-03T14:57:02.193Z,4.10
2018-03-03T14:59:30.866Z,4.10
2018-03-03T15:02:00.193Z,3.60
2018-03-03T15:04:28.794Z,3.60
2018-03-03T15:06:57.399Z,3.90
2018-03-03T15:09:27.096Z,3.90
2018-03-03T15:11:55.667Z,4.10
2018-03-03T15:14:24.300Z,4.00
2018-03-03T15:16:52.942Z,4.10
2018-03-03T15:19:21.529Z,4.10
2018-03-03T15:21:50.353Z,4.00
2018-03-03T15:24:20.024Z,3.90
2018-03-03T15:26:48.710Z,3.70
2018-03-03T15:29:21.099Z,3.70
2018-03-03T15:31:56.653Z,3.60
2018-03-03T15:34:25.356Z,3.60
2018-03-03T15:36:53.988Z,3.50
2018-03-03T15:39:22.629Z,3.30
2018-03-03T15:41:53.902Z,3.30
2018-03-03T15:44:22.548Z,3.20
2018-03-03T15:46:51.138Z,3.10
2018-03-03T15:49:20.830Z,3.10
2018-03-03T15:51:51.509Z,2.90
2018-03-03T15:54:20.093Z,2.70
2018-03-03T15:56:48.731Z,2.70
2018-03-03T15:59:18.336Z,2.60
2018-03-03T16:01:46.902Z,2.60
2018-03-03T16:04:15.484Z,2.50
2018-03-03T16:06:44.052Z,2.50
2018-03-03T16:09:12.633Z,2.40
2018-03-03T16:11:42.033Z,2.20
2018-03-03T16:14:10.590Z,2.10
2018-03-03T16:16:39.189Z,2.10
2018-03-03T16:19:07.787Z,2.10
2018-03-03T16:21:36.361Z,1.90
2018-03-03T16:24:04.980Z,1.80
2018-03-03T16:26:33.599Z,1.70
2018-03-03T16:29:02.422Z,1.60
2018-03-03T16:31:30.986Z,1.40
2018-03-03T16:33:59.575Z,1.30
2018-03-03T16:36:28.192Z,1.30
2018-03-03T16:38:56.789Z,1.20
2018-03-03T16:41:25.358Z,1.10
2018-03-03T16:43:53.882Z,1.10
2018-03-03T16:46:22.867Z,1.00
2018-03-03T16:48:51.472Z,0.90
2018-03-03T16:51:20.860Z,0.80
2018-03-03T16:53:49.468Z,0.80
2018-03-03T16:56:18.770Z,0.60
2018-03-03T16:58:48.132Z,0.60
2018-03-03T17:01:16.655Z,0.50
2018-03-03T17:03:46.006Z,0.40
2018-03-03T17:06:14.674Z,0.40
2018-03-03T17:08:44.022Z,0.30
2018-03-03T17:11:12.624Z,0.30
2018-03-03T17:13:41.238Z,0.20
2018-03-03T17:16:09.872Z,0.20
2018-03-03T17:18:38.471Z,0.10
2018-03-03T17:21:07.072Z,0.00
2018-03-03T17:23:35.690Z,0.00
2018-03-03T17:26:04.314Z,-0.10
2018-03-03T17:28:32.920Z,-0.10
2018-03-03T17:31:01.571Z,-0.10
2018-03-03T17:33:31.164Z,-0.20
2018-03-03T17:35:59.780Z,-0.20
2018-03-03T17:38:28.403Z,-0.20
2018-03-03T17:40:57.782Z,-0.30
2018-03-03T17:43:26.424Z,-0.40
2018-03-03T17:45:56.061Z,-0.50
2018-03-03T17:48:24.913Z,-0.50
2018-03-03T17:50:53.780Z,-0.50
2018-03-03T17:53:22.858Z,-0.50
2018-03-03T17:55:52.530Z,-0.50
2018-03-03T17:58:21.122Z,-0.60
2018-03-03T18:00:49.848Z,-0.70
2018-03-03T18:03:18.561Z,-0.70
2018-03-03T18:05:47.197Z,-0.70
2018-03-03T18:08:15.797Z,-0.70
2018-03-03T18:10:44.360Z,-0.80
2018-03-03T18:16:17.207Z,-0.80
2018-03-03T18:18:46.054Z,-0.80
2018-03-03T18:21:15.135Z,-0.80
2018-03-03T18:23:44.013Z,-0.90
2018-03-03T18:26:12.847Z,-0.90
2018-03-03T18:28:41.740Z,-0.90
2018-03-03T18:31:11.098Z,-1.00
2018-03-03T18:33:39.671Z,-1.00
2018-03-03T18:36:09.259Z,-1.00
2018-03-03T18:38:37.862Z,-1.00
2018-03-03T18:41:06.420Z,-1.00
2018-03-03T18:43:35.334Z,-1.10
2018-03-03T18:46:03.924Z,-1.10
2018-03-03T18:48:32.449Z,-1.10
2018-03-03T18:51:01.806Z,-1.20
2018-03-03T18:53:30.626Z,-1.20
2018-03-03T18:55:59.520Z,-1.20
2018-03-03T18:58:28.272Z,-1.30
2018-03-03T19:01:00.539Z,-1.30
2018-03-03T19:03:30.454Z,-1.30
2018-03-03T19:06:00.070Z,-1.30
2018-03-03T19:08:28.902Z,-1.30
2018-03-03T19:10:57.819Z,-1.40
2018-03-03T19:13:27.466Z,-1.40
2018-03-03T19:15:56.343Z,-1.40
2018-03-03T19:18:25.187Z,-1.60
2018-03-03T19:20:54.032Z,-1.70
2018-03-03T19:23:22.912Z,-1.80
2018-03-03T19:25:51.796Z,-1.80
2018-03-03T19:28:20.655Z,-1.90
2018-03-03T19:30:49.562Z,-1.90
2018-03-03T19:33:19.151Z,-2.00
2018-03-03T19:35:48.179Z,-2.00
2018-03-03T19:38:17.018Z,-2.00
2018-03-03T19:40:45.877Z,-2.10
2018-03-03T19:43:14.753Z,-2.20
2018-03-03T19:45:43.574Z,-2.10
2018-03-03T19:48:12.451Z,-2.20
2018-03-03T19:50:41.342Z,-2.10
2018-03-03T19:53:10.180Z,-2.20
2018-03-03T19:55:39.833Z,-2.20
2018-03-03T19:58:08.691Z,-2.30
2018-03-03T20:00:38.402Z,-2.30
2018-03-03T20:03:07.260Z,-2.30
2018-03-03T20:05:36.115Z,-2.30
2018-03-03T20:08:04.951Z,-2.30
2018-03-03T20:10:33.762Z,-2.30
2018-03-03T20:13:02.619Z,-2.30
2018-03-03T20:15:31.486Z,-2.10
2018-03-03T20:18:00.274Z,-2.00
2018-03-03T20:20:29.148Z,-1.90
2018-03-03T20:22:58.908Z,-1.80
2018-03-03T20:25:27.762Z,-1.80
2018-03-03T20:27:56.643Z,-1.70
2018-03-03T20:30:25.454Z,-1.60
2018-03-03T20:32:54.308Z,-1.50
2018-03-03T20:35:23.112Z,-1.40
2018-03-03T20:37:52.124Z,-1.40
2018-03-03T20:40:21.007Z,-1.30
2018-03-03T20:42:49.848Z,-1.20
2018-03-03T20:45:18.431Z,-1.20
2018-03-03T20:47:49.089Z,-1.10
2018-03-03T20:50:17.996Z,-1.00
2018-03-03T20:52:46.843Z,-1.00
2018-03-03T20:55:16.468Z,-0.90
2018-03-03T20:57:45.509Z,-0.90
2018-03-03T21:00:14.335Z,-0.80
2018-03-03T21:02:44.011Z,-0.70
2018-03-03T21:05:12.860Z,-0.70
2018-03-03T21:07:41.765Z,-0.70
2018-03-03T21:10:10.650Z,-0.70
2018-03-03T21:12:40.952Z,-0.70
2018-03-03T21:15:09.803Z,-0.80
2018-03-03T21:17:38.695Z,-0.80
2018-03-03T21:20:09.415Z,-0.70
2018-03-03T21:22:38.351Z,-0.70
2018-03-03T21:25:07.184Z,-0.70
2018-03-03T21:27:36.729Z,-0.60
2018-03-03T21:30:10.308Z,-0.60
2018-03-03T21:32:39.202Z,-0.60
2018-03-03T21:35:08.537Z,-0.60
2018-03-03T21:37:37.638Z,-0.60
2018-03-03T21:40:06.347Z,-0.60
2018-03-03T21:42:34.941Z,-0.60
2018-03-03T21:45:03.799Z,-0.60
2018-03-03T21:47:32.678Z,-0.60
2018-03-03T21:50:01.214Z,-0.60
2018-03-03T21:52:30.061Z,-0.60
2018-03-03T21:54:58.660Z,-0.60
2018-03-03T21:57:27.222Z,-0.60
2018-03-03T21:59:56.895Z,-0.70
2018-03-03T22:02:25.717Z,-0.70
2018-03-03T22:04:54.610Z,-0.70
2018-03-03T22:07:23.203Z,-0.80
2018-03-03T22:09:51.716Z,-0.70
2018-03-03T22:12:20.284Z,-0.60
2018-03-03T22:14:48.842Z,-0.50
2018-03-03T22:17:17.580Z,-0.40
2018-03-03T22:19:46.460Z,-0.30
2018-03-03T22:22:15.003Z,-0.30
2018-03-03T22:24:43.579Z,-0.30
2018-03-03T22:27:13.235Z,-0.20
2018-03-03T22:29:41.947Z,-0.30
2018-03-03T22:32:10.483Z,-0.20
2018-03-03T22:34:39.063Z,-0.20
2018-03-03T22:37:07.653Z,-0.30
2018-03-03T22:39:36.213Z,-0.30
2018-03-03T22:42:04.809Z,-0.30
2018-03-03T22:44:33.351Z,-0.30
2018-03-03T22:47:02.006Z,-0.20
2018-03-03T22:49:30.564Z,-0.20
2018-03-03T22:51:59.144Z,-0.10
2018-03-03T22:54:27.715Z,-0.10
2018-03-03T22:56:56.225Z,-0.10
2018-03-03T22:59:24.800Z,0.00
2018-03-03T23:01:53.374Z,0.00
2018-03-03T23:04:21.973Z,0.00
2018-03-03T23:06:50.519Z,0.00
2018-03-03T23:09:19.107Z,0.00
2018-03-03T23:11:47.650Z,0.00
2018-03-03T23:14:17.009Z,0.10
2018-03-03T23:16:45.560Z,0.00
2018-03-03T23:19:14.095Z,0.10
2018-03-03T23:21:42.673Z,0.10
2018-03-03T23:24:11.271Z,0.10
2018-03-03T23:26:39.867Z,0.10
2018-03-03T23:29:09.223Z,0.20
2018-03-03T23:31:37.781Z,0.10
2018-03-03T23:34:06.322Z,0.20
2018-03-03T23:36:35.652Z,0.30
2018-03-03T23:39:03.402Z,0.30
2018-03-03T23:41:32.811Z,0.30
2018-03-03T23:44:01.308Z,0.30
2018-03-03T23:46:29.938Z,0.30
2018-03-03T23:48:58.511Z,0.40
2018-03-03T23:51:27.008Z,0.40
2018-03-03T23:53:55.668Z,0.40
2018-03-03T23:56:24.192Z,0.40
2018-03-03T23:58:52.807Z,0.40
